General Lucio Blanco International Airport
MMRX : rendu visible

Aérodrome :











RETROUVEZ-NOUS SUR...

 
LOGIN :

S'inscrire | Disclaimer

   EN    FR    IT 

 









Légende :    VFR   VFR Marginal   IFR   IFR Intensif   IFR Très Intensif
Visi : 
Plafond : 
>= 8 km
>= 3000ft
5 à 8 km
1000 à 3000 ft
1500m à 5 km
500 à 1000 ft
800 à 1500m
200 à 500 ft
< 800m
< 200 ft
Symboles :   Orages  Brouillard  Fortes neiges  Fortes précipitations  Vent > 20 kt






- Altitude de l'aérodrome : 139 ft
- Code IATA : REX


MMRX - General Lucio Blanco International

DERNIER METAR :
  • 141944Z 15010G20KT 8SM SKC 33/02 A2977 RMK HZY

METARs EXPIRÉS :
  • 141846Z 15007KT 8SM SKC 32/05 A2981 RMK HZY
  • 141745Z 18015KT 8SM SKC 30/08 A2985 RMK SLP128 57024 973 HZY

TAF TAF MMRX
Valide du 14 à 18h jusqu'au 15 à 18h UTC


141723Z 1418/1518 18015KT P6SM SKC
BECMG 1420/1421 16020KT
FM150200 16015KT P6SM SCT020
BECMG 1505/1506 BKN015
FM151000 15015KT 3SM BR HZ OVC015
TEMPO 1511/1515 1/2SM FG VV003
FM151600 15020KT 6SM HZ OVC020



MET'MAP, la Météo Aéronautique d'un coup d'oeil ! - Copyright ORBIFLY Décembre 2007 - Disclaimer

ORBIFLY MET'MAP TEAM :

Programmation & Développement : Alexandra Zaïnal
Sur une idée originale de : Baudouin d'Aumeries
Assistance à la programmation : Marc-Olivier Méhu
Soutien technique & logistique : Manuel Goepfert

Contact : metmap@orbifly.com




SOURCES & CREDITS :

   NOAA       Earth
Advisory